createdAt,value
2023-02-13T00:01:26.717Z,18.08
2023-02-13T00:03:55.027Z,18.02
2023-02-13T00:06:23.763Z,17.92
2023-02-13T00:08:52.094Z,17.87
2023-02-13T00:11:21.551Z,17.81
2023-02-13T00:13:49.921Z,17.78
2023-02-13T00:16:18.276Z,17.78
2023-02-13T00:18:46.714Z,17.73
2023-02-13T00:21:15.697Z,17.69
2023-02-13T00:23:44.000Z,17.65
2023-02-13T00:26:15.036Z,17.60
2023-02-13T00:28:43.832Z,17.56
2023-02-13T00:31:18.311Z,17.52
2023-02-13T00:33:46.261Z,17.49
2023-02-13T00:36:22.994Z,17.46
2023-02-13T00:38:51.828Z,17.38
2023-02-13T00:41:20.150Z,17.34
2023-02-13T00:43:49.555Z,17.28
2023-02-13T00:46:18.868Z,17.23
2023-02-13T00:48:47.795Z,17.21
2023-02-13T00:51:16.569Z,17.17
2023-02-13T00:53:44.844Z,17.11
2023-02-13T00:56:13.170Z,17.07
2023-02-13T00:58:41.552Z,17.02
2023-02-13T01:01:09.920Z,16.97
2023-02-13T01:03:38.374Z,16.92
2023-02-13T01:06:07.531Z,16.89
2023-02-13T01:08:36.759Z,16.84
2023-02-13T01:11:05.084Z,16.78
2023-02-13T01:13:33.723Z,16.74
2023-02-13T01:16:02.160Z,16.71
2023-02-13T01:18:30.528Z,16.66
2023-02-13T01:21:04.737Z,16.63
2023-02-13T01:23:35.416Z,16.57
2023-02-13T01:26:08.907Z,16.52
2023-02-13T01:28:37.315Z,16.47
2023-02-13T01:31:05.848Z,16.38
2023-02-13T01:33:34.269Z,16.31
2023-02-13T01:36:07.919Z,16.24
2023-02-13T01:38:36.230Z,16.16
2023-02-13T01:41:05.020Z,16.08
2023-02-13T01:43:47.178Z,15.96
2023-02-13T01:46:20.417Z,15.87
2023-02-13T01:48:51.023Z,15.80
2023-02-13T01:51:25.031Z,15.74
2023-02-13T01:54:08.880Z,15.66
2023-02-13T01:56:50.785Z,15.58
2023-02-13T01:59:23.891Z,15.52
2023-02-13T02:01:52.829Z,15.44
2023-02-13T02:04:35.389Z,15.38
2023-02-13T02:07:09.491Z,15.30
2023-02-13T02:09:42.108Z,15.23
2023-02-13T02:12:27.518Z,15.13
2023-02-13T02:14:59.119Z,15.05
2023-02-13T02:17:28.544Z,14.98
2023-02-13T02:20:25.799Z,14.92
2023-02-13T02:23:34.056Z,14.85
2023-02-13T02:26:39.292Z,14.77
2023-02-13T02:29:26.464Z,14.70
2023-02-13T02:31:57.774Z,14.66
2023-02-13T02:34:42.065Z,14.60
2023-02-13T02:37:45.594Z,14.55
2023-02-13T02:40:57.766Z,14.49
2023-02-13T02:43:44.599Z,14.42
2023-02-13T02:46:37.149Z,14.36
2023-02-13T02:49:25.493Z,14.31
2023-02-13T02:52:21.484Z,14.27
2023-02-13T02:55:09.285Z,14.21
2023-02-13T02:58:07.712Z,14.16
2023-02-13T03:00:59.451Z,14.09
2023-02-13T03:03:48.325Z,14.09
2023-02-13T03:06:18.560Z,14.07
2023-02-13T03:09:17.982Z,14.02
2023-02-13T03:12:08.560Z,13.98
2023-02-13T03:14:37.250Z,13.93
2023-02-13T03:17:26.185Z,13.86
2023-02-13T03:20:28.480Z,13.80
2023-02-13T03:23:04.226Z,13.69
2023-02-13T03:25:39.756Z,13.61
2023-02-13T03:28:37.467Z,13.53
2023-02-13T03:31:25.543Z,13.47
2023-02-13T03:34:08.038Z,13.38
2023-02-13T03:36:59.493Z,13.22
2023-02-13T03:39:33.536Z,13.10
2023-02-13T03:42:53.969Z,13.03
2023-02-13T03:45:57.940Z,12.95
2023-02-13T03:48:49.406Z,12.82
2023-02-13T03:51:29.566Z,12.70
2023-02-13T03:54:03.106Z,12.62
2023-02-13T03:56:51.835Z,12.54
2023-02-13T03:59:35.052Z,12.47
2023-02-13T04:02:20.608Z,12.41
2023-02-13T04:05:09.470Z,12.38
2023-02-13T04:07:38.095Z,12.34
2023-02-13T04:10:10.232Z,12.29
2023-02-13T04:12:53.606Z,12.24
2023-02-13T04:15:30.300Z,12.17
2023-02-13T04:18:04.338Z,12.12
2023-02-13T04:20:35.629Z,12.06
2023-02-13T04:23:12.343Z,12.02
2023-02-13T04:25:42.833Z,11.98
2023-02-13T04:28:11.172Z,11.91
2023-02-13T04:30:39.894Z,11.86
2023-02-13T04:33:08.230Z,11.80
2023-02-13T04:35:36.528Z,11.76
2023-02-13T04:38:05.336Z,11.74
2023-02-13T04:40:33.636Z,11.70
2023-02-13T04:43:01.977Z,11.64
2023-02-13T04:45:30.372Z,11.56
2023-02-13T04:48:00.132Z,11.49
2023-02-13T04:50:28.536Z,11.46
2023-02-13T04:52:58.644Z,11.44
2023-02-13T04:55:29.353Z,11.40
2023-02-13T04:57:57.922Z,11.37
2023-02-13T05:00:28.062Z,11.29
2023-02-13T05:03:05.330Z,11.19
2023-02-13T05:05:33.723Z,11.12
2023-02-13T05:08:02.052Z,11.10
2023-02-13T05:10:30.439Z,11.05
2023-02-13T05:12:58.792Z,10.99
2023-02-13T05:15:27.178Z,10.97
2023-02-13T05:17:55.575Z,10.93
2023-02-13T05:20:23.924Z,10.91
2023-02-13T05:23:12.833Z,10.88
2023-02-13T05:25:43.099Z,10.82
2023-02-13T05:28:31.296Z,10.73
2023-02-13T05:31:00.161Z,10.65
2023-02-13T05:33:29.298Z,10.58
2023-02-13T05:35:57.571Z,10.52
2023-02-13T05:38:26.775Z,10.48
2023-02-13T05:40:55.475Z,10.46
2023-02-13T05:43:24.103Z,10.43
2023-02-13T05:45:53.169Z,10.38
2023-02-13T05:48:21.451Z,10.32
2023-02-13T05:50:49.712Z,10.27
2023-02-13T05:53:17.968Z,10.22
2023-02-13T05:55:46.246Z,10.19
2023-02-13T05:58:14.641Z,10.18
2023-02-13T06:00:42.901Z,10.15
2023-02-13T06:03:11.167Z,10.11
2023-02-13T06:05:39.586Z,10.07
2023-02-13T06:08:07.946Z,10.04
2023-02-13T06:10:36.295Z,9.98
2023-02-13T06:13:04.646Z,9.92
2023-02-13T06:15:33.074Z,9.86
2023-02-13T06:18:02.092Z,9.81
2023-02-13T06:20:30.330Z,9.81
2023-02-13T06:22:58.583Z,9.77
2023-02-13T06:25:26.978Z,9.72
2023-02-13T06:27:55.429Z,9.69
2023-02-13T06:30:23.985Z,9.63
2023-02-13T06:32:52.392Z,9.59
2023-02-13T06:35:20.725Z,9.59
2023-02-13T06:37:49.767Z,9.55
2023-02-13T06:40:18.674Z,9.46
2023-02-13T06:42:47.662Z,9.44
2023-02-13T06:45:16.195Z,9.38
2023-02-13T06:47:46.066Z,9.34
2023-02-13T06:50:16.017Z,9.31
2023-02-13T06:52:51.547Z,9.29
2023-02-13T06:55:21.639Z,9.28
2023-02-13T06:57:50.425Z,9.25
2023-02-13T07:00:20.225Z,9.19
2023-02-13T07:02:49.321Z,9.15
2023-02-13T07:05:17.813Z,9.16
2023-02-13T07:07:46.277Z,9.20
2023-02-13T07:10:15.450Z,9.12
2023-02-13T07:12:49.161Z,9.08
2023-02-13T07:15:22.237Z,9.04
2023-02-13T07:17:56.851Z,9.01
2023-02-13T07:20:24.984Z,8.98
2023-02-13T07:22:53.377Z,8.95
2023-02-13T07:25:21.668Z,8.89
2023-02-13T07:27:49.955Z,8.85
2023-02-13T07:30:18.388Z,8.83
2023-02-13T07:32:46.916Z,8.76
2023-02-13T07:35:15.371Z,8.68
2023-02-13T07:37:43.659Z,8.73
2023-02-13T07:40:12.372Z,8.77
2023-02-13T07:42:40.646Z,8.74
2023-02-13T07:45:10.310Z,8.65
2023-02-13T07:47:38.955Z,8.63
2023-02-13T07:50:07.930Z,8.60
2023-02-13T07:52:38.050Z,8.58
2023-02-13T07:55:07.479Z,8.59
2023-02-13T07:57:35.707Z,8.58
2023-02-13T08:00:04.279Z,8.52
2023-02-13T08:02:32.543Z,8.48
2023-02-13T08:05:00.839Z,8.45
2023-02-13T08:07:29.109Z,8.43
2023-02-13T08:10:15.858Z,8.41
2023-02-13T08:12:44.329Z,8.38
2023-02-13T08:15:16.518Z,8.37
2023-02-13T08:17:44.868Z,8.34
2023-02-13T08:20:13.426Z,8.29
2023-02-13T08:22:41.752Z,8.28
2023-02-13T08:25:10.336Z,8.24
2023-02-13T08:27:39.508Z,8.16
2023-02-13T08:30:09.148Z,8.14
2023-02-13T08:32:53.080Z,8.14
2023-02-13T08:35:23.641Z,8.10
2023-02-13T08:37:51.885Z,8.08
2023-02-13T08:40:20.330Z,8.07
2023-02-13T08:42:48.689Z,8.01
2023-02-13T08:45:17.028Z,7.94
2023-02-13T08:47:45.301Z,7.96
2023-02-13T08:50:13.701Z,7.95
2023-02-13T08:52:41.987Z,7.92
2023-02-13T08:55:10.284Z,7.92
2023-02-13T08:57:38.996Z,7.90
2023-02-13T09:00:07.893Z,7.88
2023-02-13T09:02:36.213Z,7.88
2023-02-13T09:05:04.662Z,7.87
2023-02-13T09:07:32.967Z,7.85
2023-02-13T09:10:01.343Z,7.82
2023-02-13T09:12:29.633Z,7.76
2023-02-13T09:14:57.933Z,7.75
2023-02-13T09:17:26.234Z,7.72
2023-02-13T09:19:54.517Z,7.67
2023-02-13T09:22:22.880Z,7.69
2023-02-13T09:24:51.173Z,7.67
2023-02-13T09:27:19.491Z,7.64
2023-02-13T09:29:48.137Z,7.65
2023-02-13T09:32:17.912Z,7.62
2023-02-13T09:34:46.388Z,7.58
2023-02-13T09:37:14.662Z,7.60
2023-02-13T09:39:42.927Z,7.59
2023-02-13T09:42:32.436Z,7.53
2023-02-13T09:45:04.223Z,7.47
2023-02-13T09:47:40.493Z,7.44
2023-02-13T09:50:28.808Z,7.41
2023-02-13T09:52:59.809Z,7.39
2023-02-13T09:55:31.132Z,7.34
2023-02-13T09:58:17.166Z,7.25
2023-02-13T10:00:50.960Z,7.14
2023-02-13T10:03:40.744Z,7.06
2023-02-13T10:06:16.536Z,7.02
2023-02-13T10:08:56.517Z,6.97
2023-02-13T10:11:42.300Z,6.99
2023-02-13T10:14:19.706Z,6.97
2023-02-13T10:16:57.073Z,6.96
2023-02-13T10:19:39.111Z,6.97
2023-02-13T10:22:32.365Z,6.96
2023-02-13T10:25:10.041Z,6.96
2023-02-13T10:27:46.617Z,6.98
2023-02-13T10:30:25.773Z,6.99
2023-02-13T10:33:19.881Z,7.00
2023-02-13T10:36:06.143Z,7.04
2023-02-13T10:38:42.405Z,7.03
2023-02-13T10:41:36.787Z,7.00
2023-02-13T10:44:21.037Z,6.93
2023-02-13T10:47:15.776Z,6.96
2023-02-13T10:50:10.842Z,6.95
2023-02-13T10:53:00.432Z,6.99
2023-02-13T10:55:49.952Z,7.01
2023-02-13T10:58:45.667Z,7.05
2023-02-13T11:01:31.969Z,7.08
2023-02-13T11:04:12.292Z,7.04
2023-02-13T11:07:05.168Z,7.03
2023-02-13T11:09:41.688Z,7.07
2023-02-13T11:12:30.051Z,7.14
2023-02-13T11:15:00.742Z,7.16
2023-02-13T11:17:33.669Z,7.20
2023-02-13T11:20:06.167Z,7.29
2023-02-13T11:22:40.843Z,7.35
2023-02-13T11:25:32.071Z,7.37
2023-02-13T11:28:18.510Z,7.41
2023-02-13T11:30:47.035Z,7.46
2023-02-13T11:33:25.863Z,7.51
2023-02-13T11:36:07.763Z,7.58
2023-02-13T11:38:36.528Z,7.67
2023-02-13T11:41:19.046Z,7.76
2023-02-13T11:43:54.645Z,7.82
2023-02-13T11:46:27.616Z,7.84
2023-02-13T11:49:07.751Z,7.88
2023-02-13T11:51:45.564Z,7.90
2023-02-13T11:54:40.058Z,7.99
2023-02-13T11:57:26.818Z,8.05
2023-02-13T11:59:55.252Z,8.09
2023-02-13T12:02:31.262Z,8.12
2023-02-13T12:05:20.046Z,8.23
2023-02-13T12:07:49.029Z,8.28
2023-02-13T12:10:20.131Z,8.29
2023-02-13T12:12:51.296Z,8.33
2023-02-13T12:15:26.238Z,8.37
2023-02-13T12:18:10.672Z,8.43
2023-02-13T12:21:02.673Z,8.51
2023-02-13T12:23:46.086Z,8.52
2023-02-13T12:26:19.587Z,8.59
2023-02-13T12:29:02.459Z,8.62
2023-02-13T12:31:36.513Z,8.64
2023-02-13T12:34:41.725Z,8.65
2023-02-13T12:37:34.213Z,8.67
2023-02-13T12:40:40.257Z,8.66
2023-02-13T12:43:32.476Z,8.65
2023-02-13T12:46:19.494Z,8.59
2023-02-13T12:49:38.347Z,8.61
2023-02-13T12:52:37.570Z,8.63
2023-02-13T12:55:27.963Z,8.59
2023-02-13T12:58:14.261Z,8.53
2023-02-13T13:01:15.363Z,8.50
2023-02-13T13:04:16.175Z,8.51
2023-02-13T13:07:02.461Z,8.53
2023-02-13T13:09:42.094Z,8.54
2023-02-13T13:12:15.840Z,8.60
2023-02-13T13:14:59.686Z,8.60
2023-02-13T13:17:43.702Z,8.55
2023-02-13T13:20:29.671Z,8.53
2023-02-13T13:23:19.492Z,8.56
2023-02-13T13:25:56.676Z,8.57
2023-02-13T13:28:33.974Z,8.61
2023-02-13T13:31:04.222Z,8.62
2023-02-13T13:33:34.437Z,8.60
2023-02-13T13:36:06.698Z,8.52
2023-02-13T13:39:00.667Z,8.50
2023-02-13T13:41:46.510Z,8.47
2023-02-13T13:44:35.962Z,8.44
2023-02-13T13:47:22.293Z,8.36
2023-02-13T13:49:56.615Z,8.34
2023-02-13T13:52:30.597Z,8.26
2023-02-13T13:55:01.432Z,8.20
2023-02-13T13:57:58.755Z,8.18
2023-02-13T14:00:30.739Z,8.14
2023-02-13T14:03:35.297Z,8.02
2023-02-13T14:06:09.535Z,7.96
2023-02-13T14:08:45.346Z,7.93
2023-02-13T14:11:36.111Z,7.91
2023-02-13T14:14:33.886Z,7.83
2023-02-13T14:17:03.582Z,7.75
2023-02-13T14:19:36.629Z,7.65
2023-02-13T14:22:28.802Z,7.54
2023-02-13T14:25:03.082Z,7.50
2023-02-13T14:27:34.210Z,7.46
2023-02-13T14:30:03.146Z,7.43
2023-02-13T14:32:37.474Z,7.43
2023-02-13T14:35:27.952Z,7.31
2023-02-13T14:38:00.496Z,7.29
2023-02-13T14:40:52.118Z,7.21
2023-02-13T14:43:32.352Z,7.14
2023-02-13T14:46:09.195Z,7.07
2023-02-13T14:48:52.325Z,7.06
2023-02-13T14:51:31.856Z,7.04
2023-02-13T14:54:08.089Z,7.01
2023-02-13T14:56:39.244Z,7.02
2023-02-13T14:59:16.721Z,6.95
2023-02-13T15:01:53.616Z,6.91
2023-02-13T15:04:54.885Z,6.83
2023-02-13T15:07:28.832Z,6.79
2023-02-13T15:10:35.529Z,6.79
2023-02-13T15:13:04.856Z,6.78
2023-02-13T15:15:36.638Z,6.80
2023-02-13T15:18:25.551Z,6.81
2023-02-13T15:20:59.460Z,6.80
2023-02-13T15:23:31.617Z,6.82
2023-02-13T15:26:06.449Z,6.81
2023-02-13T15:28:36.940Z,6.80
2023-02-13T15:31:07.927Z,6.80
2023-02-13T15:33:48.776Z,6.83
2023-02-13T15:36:26.325Z,6.90
2023-02-13T15:39:12.181Z,6.96
2023-02-13T15:41:44.846Z,7.00
2023-02-13T15:44:21.148Z,7.03
2023-02-13T15:46:54.870Z,7.08
2023-02-13T15:49:28.461Z,7.11
2023-02-13T15:52:06.242Z,7.15
2023-02-13T15:54:36.589Z,7.15
2023-02-13T15:57:08.074Z,7.19
2023-02-13T15:59:40.260Z,7.27
2023-02-13T16:02:19.211Z,7.35
2023-02-13T16:04:50.391Z,7.45
2023-02-13T16:07:18.725Z,7.55
2023-02-13T16:09:47.576Z,7.61
2023-02-13T16:12:25.913Z,7.70
2023-02-13T16:15:03.927Z,7.82
2023-02-13T16:17:38.304Z,7.92
2023-02-13T16:20:14.872Z,8.01
2023-02-13T16:22:58.348Z,8.11
2023-02-13T16:25:28.305Z,8.18
2023-02-13T16:28:02.693Z,8.26
2023-02-13T16:30:41.312Z,8.33
2023-02-13T16:33:18.440Z,8.42
2023-02-13T16:35:51.935Z,8.50
2023-02-13T16:38:38.340Z,8.58
2023-02-13T16:41:18.518Z,8.63
2023-02-13T16:43:49.112Z,8.71
2023-02-13T16:46:19.843Z,8.81
2023-02-13T16:48:59.743Z,8.90
2023-02-13T16:51:39.429Z,8.97
2023-02-13T16:54:30.740Z,9.05
2023-02-13T16:57:06.556Z,9.14
2023-02-13T16:59:43.779Z,9.24
2023-02-13T17:02:30.004Z,9.31
2023-02-13T17:05:10.331Z,9.39
2023-02-13T17:07:42.480Z,9.45
2023-02-13T17:10:43.015Z,9.51
2023-02-13T17:13:14.795Z,9.57
2023-02-13T17:15:45.347Z,9.62
2023-02-13T17:18:14.109Z,9.70
2023-02-13T17:20:44.299Z,9.80
2023-02-13T17:23:30.604Z,9.90
2023-02-13T17:25:59.773Z,9.99
2023-02-13T17:28:31.158Z,10.08
2023-02-13T17:31:01.419Z,10.14
2023-02-13T17:33:32.448Z,10.18
2023-02-13T17:36:00.757Z,10.23
2023-02-13T17:38:29.062Z,10.29
2023-02-13T17:40:57.693Z,10.36
2023-02-13T17:43:27.796Z,10.41
2023-02-13T17:45:56.128Z,10.46
2023-02-13T17:48:25.051Z,10.52
2023-02-13T17:50:53.404Z,10.59
2023-02-13T17:53:27.637Z,10.66
2023-02-13T17:55:55.982Z,10.72
2023-02-13T17:58:24.582Z,10.80
2023-02-13T18:00:53.438Z,10.85
2023-02-13T18:03:21.774Z,10.88
2023-02-13T18:05:50.935Z,10.92
2023-02-13T18:08:20.326Z,10.97
2023-02-13T18:10:48.902Z,11.02
2023-02-13T18:13:17.347Z,11.10
2023-02-13T18:15:46.398Z,11.18
2023-02-13T18:18:17.074Z,11.25
2023-02-13T18:20:45.977Z,11.31
2023-02-13T18:23:14.944Z,11.36
2023-02-13T18:25:43.358Z,11.42
2023-02-13T18:28:11.811Z,11.49
2023-02-13T18:30:43.512Z,11.53
2023-02-13T18:33:12.022Z,11.58
2023-02-13T18:35:40.328Z,11.65
2023-02-13T18:38:08.644Z,11.73
2023-02-13T18:40:37.495Z,11.79
2023-02-13T18:43:06.120Z,11.83
2023-02-13T18:45:34.534Z,11.88
2023-02-13T18:48:02.921Z,11.94
2023-02-13T18:50:31.240Z,12.04
2023-02-13T18:52:59.555Z,12.12
2023-02-13T18:55:27.911Z,12.18
2023-02-13T18:57:57.237Z,12.26
2023-02-13T19:00:26.672Z,12.35
2023-02-13T19:02:55.033Z,12.43
2023-02-13T19:05:23.633Z,12.51
2023-02-13T19:07:51.914Z,12.62
2023-02-13T19:10:20.267Z,12.73
2023-02-13T19:12:49.474Z,12.84
2023-02-13T19:15:18.677Z,12.94
2023-02-13T19:17:47.351Z,13.04
2023-02-13T19:20:16.825Z,13.14
2023-02-13T19:22:45.455Z,13.22
2023-02-13T19:25:13.842Z,13.33
2023-02-13T19:27:42.207Z,13.47
2023-02-13T19:30:11.613Z,13.57
2023-02-13T19:32:39.937Z,13.72
2023-02-13T19:35:08.682Z,13.83
2023-02-13T19:37:43.774Z,13.96
2023-02-13T19:40:14.422Z,14.06
2023-02-13T19:42:42.807Z,14.13
2023-02-13T19:45:13.055Z,14.26
2023-02-13T19:47:41.412Z,14.38
2023-02-13T19:50:10.702Z,14.41
2023-02-13T19:52:39.682Z,14.43
2023-02-13T19:55:08.285Z,14.44
2023-02-13T19:57:37.409Z,14.51
2023-02-13T20:00:06.972Z,14.60
2023-02-13T20:02:36.686Z,14.69
2023-02-13T20:05:07.957Z,14.75
2023-02-13T20:07:36.242Z,14.88
2023-02-13T20:10:04.754Z,15.00
2023-02-13T20:12:35.930Z,15.09
2023-02-13T20:15:05.465Z,15.16
2023-02-13T20:17:36.373Z,15.20
2023-02-13T20:20:04.957Z,15.21
2023-02-13T20:22:33.360Z,15.26
2023-02-13T20:25:01.666Z,15.31
2023-02-13T20:27:30.026Z,15.31
2023-02-13T20:30:06.395Z,15.32
2023-02-13T20:32:36.091Z,15.36
2023-02-13T20:35:04.645Z,15.48
2023-02-13T20:37:33.445Z,15.61
2023-02-13T20:40:01.914Z,15.79
2023-02-13T20:42:32.999Z,15.83
2023-02-13T20:45:02.609Z,15.86
2023-02-13T20:47:31.229Z,15.85
2023-02-13T20:49:59.924Z,15.85
2023-02-13T20:52:28.464Z,15.85
2023-02-13T20:54:56.824Z,15.88
2023-02-13T20:57:25.113Z,15.95
2023-02-13T20:59:53.455Z,15.99
2023-02-13T21:02:21.790Z,16.12
2023-02-13T21:04:50.124Z,16.25
2023-02-13T21:07:18.513Z,16.32
2023-02-13T21:09:47.129Z,16.39
2023-02-13T21:12:15.853Z,16.42
2023-02-13T21:14:44.352Z,16.46
2023-02-13T21:17:12.643Z,16.49
2023-02-13T21:19:42.178Z,16.59
2023-02-13T21:22:13.268Z,16.69
2023-02-13T21:24:43.811Z,16.79
2023-02-13T21:27:12.577Z,16.91
2023-02-13T21:29:40.897Z,17.00
2023-02-13T21:32:09.350Z,17.02
2023-02-13T21:34:37.796Z,17.05
2023-02-13T21:37:06.263Z,17.08
2023-02-13T21:39:34.533Z,17.20
2023-02-13T21:42:02.902Z,17.25
2023-02-13T21:44:31.588Z,17.28
2023-02-13T21:46:59.890Z,17.36
2023-02-13T21:49:28.202Z,17.48
2023-02-13T21:51:56.806Z,17.58
2023-02-13T21:54:25.030Z,17.60
2023-02-13T21:56:53.320Z,17.66
2023-02-13T21:59:21.677Z,17.75
2023-02-13T22:01:51.233Z,17.88
2023-02-13T22:04:20.148Z,17.89
2023-02-13T22:06:51.841Z,17.89
2023-02-13T22:09:21.769Z,17.90
2023-02-13T22:11:51.929Z,17.98
2023-02-13T22:14:20.806Z,18.15
2023-02-13T22:16:51.927Z,18.47
2023-02-13T22:19:21.193Z,18.58
2023-02-13T22:21:49.972Z,18.58
2023-02-13T22:24:18.398Z,18.74
2023-02-13T22:26:47.285Z,18.78
2023-02-13T22:29:18.653Z,18.84
2023-02-13T22:31:48.076Z,18.86
2023-02-13T22:34:16.857Z,18.70
2023-02-13T22:36:45.253Z,18.63
2023-02-13T22:39:13.838Z,18.52
2023-02-13T22:41:45.437Z,18.57
2023-02-13T22:44:13.889Z,18.68
2023-02-13T22:46:42.345Z,18.57
2023-02-13T22:49:10.684Z,18.66
2023-02-13T22:51:39.073Z,18.88
2023-02-13T22:54:08.835Z,18.93
2023-02-13T22:56:37.198Z,18.87
2023-02-13T22:59:05.497Z,18.80
2023-02-13T23:01:33.792Z,18.71
2023-02-13T23:04:02.224Z,18.48
2023-02-13T23:06:31.192Z,18.42
2023-02-13T23:08:59.548Z,18.40
2023-02-13T23:11:48.112Z,18.37
2023-02-13T23:14:17.207Z,18.32
2023-02-13T23:17:04.174Z,18.30
2023-02-13T23:19:32.803Z,18.17
2023-02-13T23:22:01.631Z,18.07
2023-02-13T23:24:31.269Z,17.96
2023-02-13T23:27:00.860Z,17.82
2023-02-13T23:29:29.242Z,17.78
2023-02-13T23:31:57.797Z,17.74
2023-02-13T23:34:26.211Z,17.58
2023-02-13T23:36:54.527Z,17.59
2023-02-13T23:39:25.024Z,17.54
2023-02-13T23:41:53.350Z,17.44
2023-02-13T23:44:21.744Z,17.26
2023-02-13T23:46:50.221Z,17.10
2023-02-13T23:49:18.707Z,16.99
2023-02-13T23:51:47.267Z,16.86
2023-02-13T23:54:20.198Z,16.72
2023-02-13T23:56:50.488Z,16.59
2023-02-13T23:59:20.135Z,16.51
